createdAt,value
2019-03-05T08:48:54.549Z,176.00
2019-03-05T08:49:54.468Z,164.00
2019-03-05T08:50:54.470Z,168.00
2019-03-05T08:51:54.439Z,128.00
2019-03-05T08:52:54.418Z,140.00
2019-03-05T08:53:54.431Z,140.00
2019-03-05T08:54:54.396Z,152.00
2019-03-05T08:55:54.387Z,136.00
2019-03-05T08:56:54.373Z,124.00
2019-03-05T08:57:54.364Z,108.00
2019-03-05T08:58:54.386Z,84.00
2019-03-05T08:59:54.343Z,96.00
2019-03-05T09:00:54.340Z,108.00
2019-03-05T09:01:54.363Z,128.00
2019-03-05T09:02:54.314Z,128.00
2019-03-05T09:03:54.318Z,116.00
2019-03-05T09:04:54.286Z,112.00
2019-03-05T09:05:54.279Z,108.00
2019-03-05T09:06:54.264Z,96.00
2019-03-05T09:07:54.255Z,92.00
2019-03-05T09:08:54.262Z,88.00
2019-03-05T09:09:54.233Z,76.00
2019-03-05T09:10:54.219Z,76.00
2019-03-05T09:11:54.215Z,68.00
2019-03-05T09:12:54.209Z,68.00
2019-03-05T09:13:54.195Z,68.00
2019-03-05T09:14:54.178Z,72.00
2019-03-05T09:15:54.168Z,68.00
2019-03-05T09:16:54.179Z,64.00
2019-03-05T09:17:54.145Z,64.00
2019-03-05T09:18:54.153Z,68.00
2019-03-05T09:19:54.133Z,68.00
2019-03-05T09:20:54.110Z,68.00
2019-03-05T09:21:54.102Z,72.00
2019-03-05T09:22:54.096Z,92.00
2019-03-05T09:23:54.088Z,88.00
2019-03-05T09:24:54.096Z,84.00
2019-03-05T09:25:54.062Z,80.00
2019-03-05T09:26:54.044Z,76.00
2019-03-05T09:27:55.367Z,68.00
2019-03-05T09:28:54.023Z,64.00
2019-03-05T09:29:54.022Z,68.00
2019-03-05T09:30:54.014Z,72.00
2019-03-05T09:31:53.991Z,68.00
2019-03-05T09:32:53.979Z,68.00
2019-03-05T09:33:53.983Z,68.00
2019-03-05T09:34:53.971Z,76.00
2019-03-05T09:35:53.955Z,92.00
2019-03-05T09:36:53.940Z,100.00
2019-03-05T09:37:53.922Z,100.00
2019-03-05T09:38:53.911Z,96.00
2019-03-05T09:39:53.922Z,92.00
2019-03-05T09:40:53.891Z,112.00
2019-03-05T09:41:53.885Z,120.00
2019-03-05T09:42:53.869Z,112.00
2019-03-05T09:43:53.870Z,112.00
2019-03-05T09:44:53.866Z,112.00
2019-03-05T09:45:53.856Z,112.00
2019-03-05T09:46:53.877Z,108.00
2019-03-05T09:47:53.839Z,108.00
2019-03-05T09:48:53.803Z,116.00
2019-03-05T09:49:53.791Z,124.00
2019-03-05T09:50:53.785Z,136.00
2019-03-05T09:51:53.771Z,140.00
2019-03-05T09:52:55.216Z,140.00
2019-03-05T09:53:53.763Z,140.00
2019-03-05T09:54:53.754Z,128.00
2019-03-05T09:55:53.743Z,132.00
2019-03-05T09:56:53.717Z,128.00
2019-03-05T09:57:53.705Z,112.00
2019-03-05T09:58:53.698Z,108.00
2019-03-05T09:59:53.702Z,112.00
2019-03-05T10:00:53.682Z,120.00
2019-03-05T10:01:53.666Z,128.00
2019-03-05T10:02:53.650Z,124.00
2019-03-05T10:03:53.641Z,128.00
2019-03-05T10:04:53.630Z,120.00
2019-03-05T10:05:53.624Z,120.00
2019-03-05T10:06:53.604Z,116.00
2019-03-05T10:07:53.604Z,112.00
2019-03-05T10:08:53.591Z,108.00
2019-03-05T10:09:53.574Z,112.00
2019-03-05T10:10:53.572Z,108.00
2019-03-05T10:11:56.706Z,108.00
2019-03-05T10:12:53.546Z,96.00
2019-03-05T10:13:53.527Z,108.00
2019-03-05T10:14:53.518Z,120.00
2019-03-05T10:15:53.651Z,124.00
2019-03-05T10:16:53.505Z,124.00
2019-03-05T10:17:53.483Z,132.00
2019-03-05T10:18:53.474Z,140.00
2019-03-05T10:19:53.478Z,156.00
2019-03-05T10:20:53.469Z,168.00
2019-03-05T10:21:53.445Z,176.00
2019-03-05T10:22:53.434Z,188.00
2019-03-05T10:23:53.419Z,204.00
2019-03-05T10:24:53.412Z,212.00
2019-03-05T10:25:53.399Z,212.00
2019-03-05T10:26:53.389Z,232.00
2019-03-05T10:27:53.384Z,236.00
2019-03-05T10:28:53.373Z,236.00
2019-03-05T10:29:53.369Z,240.00
2019-03-05T10:30:53.343Z,236.00
2019-03-05T10:31:53.354Z,228.00
2019-03-05T10:32:53.322Z,216.00
2019-03-05T10:33:53.312Z,192.00
2019-03-05T10:34:53.314Z,188.00
2019-03-05T10:35:53.290Z,180.00
2019-03-05T10:36:53.289Z,188.00
2019-03-05T10:37:53.272Z,196.00
2019-03-05T10:38:57.212Z,208.00
2019-03-05T10:39:53.245Z,200.00
2019-03-05T10:40:53.234Z,196.00
2019-03-05T10:41:53.242Z,200.00
2019-03-05T10:42:53.228Z,208.00
2019-03-05T10:43:53.200Z,216.00
2019-03-05T10:44:53.188Z,204.00
2019-03-05T10:45:53.177Z,220.00
2019-03-05T10:46:55.218Z,196.00
2019-03-05T10:47:53.153Z,208.00
2019-03-05T10:48:53.153Z,200.00
2019-03-05T10:49:53.139Z,200.00
2019-03-05T10:50:53.138Z,208.00
2019-03-05T10:51:53.124Z,216.00
2019-03-05T10:52:53.103Z,232.00
2019-03-05T10:53:53.109Z,224.00
2019-03-05T10:54:53.083Z,220.00
2019-03-05T10:55:53.085Z,232.00
2019-03-05T10:56:53.070Z,240.00
2019-03-05T10:57:53.045Z,260.00
2019-03-05T10:58:53.091Z,252.00
2019-03-05T10:59:53.023Z,248.00
2019-03-05T11:00:53.011Z,244.00
2019-03-05T11:01:53.020Z,248.00
2019-03-05T11:02:52.997Z,252.00
2019-03-05T11:03:52.980Z,248.00
2019-03-05T11:04:52.971Z,236.00
2019-03-05T11:05:52.963Z,236.00
2019-03-05T11:06:52.949Z,228.00
2019-03-05T11:07:52.937Z,224.00
2019-03-05T11:08:52.929Z,216.00
2019-03-05T11:09:52.913Z,216.00
2019-03-05T11:10:52.922Z,208.00
2019-03-05T11:11:52.890Z,188.00
2019-03-05T11:12:52.905Z,180.00
2019-03-05T11:13:52.878Z,172.00
2019-03-05T11:14:52.863Z,168.00
2019-03-05T11:15:52.846Z,160.00
2019-03-05T11:16:52.841Z,160.00
2019-03-05T11:17:52.850Z,148.00
2019-03-05T11:18:52.815Z,140.00
2019-03-05T11:19:52.804Z,136.00
2019-03-05T11:20:52.796Z,136.00
2019-03-05T11:21:52.781Z,136.00
2019-03-05T11:22:52.785Z,140.00
2019-03-05T11:23:52.759Z,148.00
2019-03-05T11:24:52.751Z,168.00
2019-03-05T11:25:52.738Z,164.00
2019-03-05T11:26:52.726Z,180.00
2019-03-05T11:27:52.716Z,184.00
2019-03-05T11:28:54.726Z,180.00
2019-03-05T11:29:52.696Z,164.00
2019-03-05T11:30:52.689Z,164.00
2019-03-05T11:31:52.686Z,164.00
2019-03-05T11:32:52.665Z,172.00
2019-03-05T11:33:52.660Z,164.00
2019-03-05T11:34:52.637Z,152.00
2019-03-05T11:35:52.632Z,148.00
2019-03-05T11:36:52.630Z,136.00
2019-03-05T11:37:52.625Z,136.00
2019-03-05T11:38:52.617Z,140.00
2019-03-05T11:39:52.583Z,156.00
2019-03-05T11:40:52.573Z,168.00
2019-03-05T11:41:52.567Z,168.00
2019-03-05T11:42:52.555Z,168.00
2019-03-05T11:43:52.555Z,176.00
2019-03-05T11:45:06.720Z,184.00
2019-03-05T11:45:53.517Z,192.00
2019-03-05T11:46:52.521Z,192.00
2019-03-05T11:47:52.497Z,184.00
2019-03-05T11:48:52.499Z,192.00
2019-03-05T11:49:52.475Z,204.00
2019-03-05T11:50:52.482Z,208.00
2019-03-05T11:51:52.449Z,208.00
2019-03-05T11:52:52.440Z,212.00
2019-03-05T11:53:52.443Z,224.00
2019-03-05T11:54:52.417Z,184.00
2019-03-05T11:55:52.412Z,188.00
2019-03-05T11:56:52.395Z,192.00
2019-03-05T11:57:52.383Z,204.00
2019-03-05T11:58:52.393Z,196.00
2019-03-05T11:59:52.363Z,188.00
2019-03-05T12:00:52.354Z,180.00
2019-03-05T12:01:52.341Z,172.00
2019-03-05T12:02:52.331Z,168.00
2019-03-05T12:03:52.337Z,172.00
2019-03-05T12:04:52.323Z,176.00
2019-03-05T12:05:52.321Z,188.00
2019-03-05T12:06:52.294Z,188.00
2019-03-05T12:07:52.278Z,192.00
2019-03-05T12:08:52.274Z,184.00
2019-03-05T12:09:52.254Z,180.00
2019-03-05T12:10:52.253Z,164.00
2019-03-05T12:11:52.230Z,160.00
2019-03-05T12:12:52.219Z,156.00
2019-03-05T12:13:52.234Z,152.00
2019-03-05T12:14:52.202Z,152.00
2019-03-05T12:15:52.188Z,152.00
2019-03-05T12:16:52.187Z,152.00
2019-03-05T12:17:52.171Z,144.00
2019-03-05T12:18:52.163Z,156.00
2019-03-05T12:19:52.143Z,172.00
2019-03-05T12:20:52.139Z,180.00
2019-03-05T12:21:52.124Z,180.00
2019-03-05T12:22:52.111Z,176.00
2019-03-05T12:23:52.115Z,168.00
2019-03-05T12:24:52.094Z,160.00
2019-03-05T12:25:52.077Z,152.00
2019-03-05T12:26:52.071Z,160.00
2019-03-05T12:27:52.060Z,164.00
2019-03-05T12:28:52.070Z,180.00
2019-03-05T12:29:52.036Z,196.00
2019-03-05T12:30:52.027Z,204.00
2019-03-05T12:31:52.010Z,208.00
2019-03-05T12:32:52.013Z,224.00
2019-03-05T12:33:52.002Z,212.00
2019-03-05T12:34:51.987Z,200.00
2019-03-05T12:35:51.967Z,192.00
2019-03-05T12:36:51.959Z,184.00
2019-03-05T12:37:51.945Z,188.00
2019-03-05T12:38:51.940Z,188.00
2019-03-05T12:39:51.939Z,196.00
2019-03-05T12:40:51.911Z,208.00
2019-03-05T12:41:51.909Z,220.00
2019-03-05T12:42:51.900Z,212.00
2019-03-05T12:43:51.880Z,204.00
2019-03-05T12:44:51.885Z,200.00
2019-03-05T12:45:51.858Z,200.00
2019-03-05T12:46:51.845Z,200.00
2019-03-05T12:47:51.835Z,204.00
2019-03-05T12:48:51.823Z,204.00
2019-03-05T12:49:51.828Z,204.00
2019-03-05T12:50:51.816Z,212.00
2019-03-05T12:51:51.795Z,216.00
2019-03-05T12:52:51.781Z,208.00
2019-03-05T12:53:51.774Z,204.00
2019-03-05T12:54:51.769Z,192.00
2019-03-05T12:55:51.756Z,192.00
2019-03-05T12:56:51.749Z,188.00
2019-03-05T12:57:51.726Z,176.00
2019-03-05T12:58:51.719Z,160.00
2019-03-05T12:59:51.731Z,148.00
2019-03-05T13:00:51.696Z,136.00
2019-03-05T13:01:51.683Z,136.00
2019-03-05T13:02:51.683Z,144.00
2019-03-05T13:03:51.674Z,144.00
2019-03-05T13:04:51.678Z,132.00
2019-03-05T13:05:51.647Z,148.00
2019-03-05T13:06:51.628Z,144.00
2019-03-05T13:07:52.644Z,140.00
2019-03-05T13:08:51.606Z,140.00
2019-03-05T13:09:52.652Z,124.00
2019-03-05T13:10:51.585Z,116.00
2019-03-05T13:11:51.569Z,116.00
2019-03-05T13:12:51.559Z,128.00
2019-03-05T13:14:05.366Z,128.00
2019-03-05T13:14:52.539Z,144.00
2019-03-05T13:15:52.933Z,156.00
2019-03-05T13:16:51.521Z,156.00
2019-03-05T13:17:52.642Z,160.00
2019-03-05T13:18:51.494Z,164.00
2019-03-05T13:19:53.586Z,164.00
2019-03-05T13:20:51.484Z,160.00
2019-03-05T13:21:51.463Z,168.00
2019-03-05T13:22:51.449Z,164.00
2019-03-05T13:23:51.724Z,152.00
2019-03-05T13:24:51.451Z,144.00
2019-03-05T13:25:51.430Z,144.00
2019-03-05T13:26:51.408Z,136.00
2019-03-05T13:27:51.395Z,136.00
2019-03-05T13:28:51.391Z,132.00
2019-03-05T13:29:51.376Z,128.00
2019-03-05T13:30:51.377Z,120.00
2019-03-05T13:31:51.352Z,104.00
2019-03-05T13:32:53.988Z,108.00
2019-03-05T13:33:52.328Z,104.00
2019-03-05T13:34:51.324Z,116.00
2019-03-05T13:35:51.317Z,112.00
2019-03-05T13:36:51.766Z,112.00
2019-03-05T13:37:51.289Z,124.00
2019-03-05T13:38:51.290Z,132.00
2019-03-05T13:39:51.334Z,128.00
2019-03-05T13:40:51.273Z,120.00
2019-03-05T13:41:53.812Z,116.00
2019-03-05T13:42:51.231Z,112.00
2019-03-05T13:43:52.135Z,104.00
2019-03-05T13:44:51.209Z,108.00
2019-03-05T13:45:51.221Z,96.00
2019-03-05T13:46:51.196Z,112.00
2019-03-05T13:47:51.176Z,116.00
2019-03-05T13:48:58.270Z,120.00
2019-03-05T13:49:57.511Z,116.00
2019-03-05T13:50:52.435Z,112.00
2019-03-05T13:51:51.134Z,100.00
2019-03-05T13:52:51.132Z,104.00
2019-03-05T13:54:00.348Z,104.00
2019-03-05T13:54:52.101Z,108.00
2019-03-05T13:55:51.092Z,104.00
2019-03-05T13:56:51.108Z,104.00
2019-03-05T13:57:51.401Z,108.00
2019-03-05T13:58:51.058Z,112.00
2019-03-05T13:59:51.048Z,96.00
2019-03-05T14:00:51.072Z,112.00
2019-03-05T14:01:51.042Z,116.00
2019-03-05T14:02:53.068Z,116.00
2019-03-05T14:03:51.008Z,148.00
2019-03-05T14:04:50.994Z,136.00
2019-03-05T14:05:50.981Z,140.00
2019-03-05T14:06:50.986Z,136.00
2019-03-05T14:08:21.917Z,144.00
2019-03-05T14:09:21.934Z,160.00
2019-03-05T14:10:21.892Z,164.00
2019-03-05T14:11:21.890Z,164.00
2019-03-05T14:12:21.877Z,160.00
2019-03-05T14:13:23.653Z,160.00
2019-03-05T14:14:21.849Z,156.00
2019-03-05T14:15:21.837Z,156.00
2019-03-05T14:16:21.823Z,160.00
2019-03-05T14:17:21.858Z,160.00
2019-03-05T14:18:21.829Z,156.00
2019-03-05T14:19:21.794Z,164.00
2019-03-05T14:20:31.520Z,164.00
2019-03-05T14:21:22.777Z,152.00
2019-03-05T14:22:21.811Z,152.00
2019-03-05T14:23:21.768Z,144.00
2019-03-05T14:24:21.753Z,136.00
2019-03-05T14:25:21.761Z,132.00
2019-03-05T14:26:21.734Z,132.00
2019-03-05T14:27:21.716Z,124.00
2019-03-05T14:28:21.742Z,128.00
2019-03-05T14:29:21.691Z,128.00
2019-03-05T14:30:21.682Z,124.00
2019-03-05T14:31:21.664Z,128.00
2019-03-05T14:32:21.674Z,132.00
2019-03-05T14:33:21.721Z,136.00
2019-03-05T14:34:21.638Z,128.00
2019-03-05T14:35:21.640Z,140.00
2019-03-05T14:36:21.614Z,136.00
2019-03-05T14:37:21.598Z,132.00
2019-03-05T14:38:21.593Z,120.00
2019-03-05T14:39:21.584Z,120.00
2019-03-05T14:40:24.490Z,112.00
2019-03-05T14:41:21.554Z,108.00
2019-03-05T14:42:21.615Z,104.00
2019-03-05T14:43:21.566Z,112.00
2019-03-05T14:44:21.541Z,132.00
2019-03-05T14:45:21.511Z,152.00
2019-03-05T14:46:21.530Z,168.00
2019-03-05T14:47:21.492Z,180.00
2019-03-05T14:48:21.487Z,68.00
2019-03-05T14:49:21.497Z,168.00
2019-03-05T14:50:21.469Z,180.00
2019-03-05T14:51:21.441Z,172.00
2019-03-05T14:52:21.455Z,144.00
2019-03-05T14:53:21.448Z,136.00
2019-03-05T14:54:21.762Z,120.00
2019-03-05T14:55:21.428Z,116.00
2019-03-05T14:56:21.392Z,108.00
2019-03-05T14:57:21.410Z,116.00
2019-03-05T14:58:21.402Z,116.00
2019-03-05T14:59:21.364Z,136.00
2019-03-05T15:00:21.391Z,136.00
2019-03-05T15:01:21.332Z,136.00
2019-03-05T15:02:21.340Z,140.00
2019-03-05T15:03:21.322Z,148.00
2019-03-05T15:04:21.326Z,144.00
2019-03-05T15:05:21.304Z,136.00
2019-03-05T15:06:21.302Z,140.00
2019-03-05T15:07:21.264Z,136.00
2019-03-05T15:08:21.285Z,136.00
2019-03-05T15:09:21.282Z,148.00
2019-03-05T15:10:21.274Z,148.00
2019-03-05T15:11:21.219Z,144.00
2019-03-05T15:12:21.210Z,48.00
2019-03-05T15:13:21.239Z,124.00
2019-03-05T15:14:21.206Z,132.00
2019-03-05T15:15:21.192Z,132.00
2019-03-05T15:16:21.207Z,112.00
2019-03-05T15:17:21.153Z,92.00
2019-03-05T15:18:21.203Z,84.00
2019-03-05T15:19:21.898Z,80.00
2019-03-05T15:20:21.161Z,72.00
2019-03-05T15:21:21.114Z,64.00
2019-03-05T15:22:21.103Z,56.00
2019-03-05T15:23:21.127Z,48.00
2019-03-05T15:24:21.097Z,48.00
2019-03-05T15:25:21.084Z,48.00
2019-03-05T15:26:21.089Z,52.00
2019-03-05T15:27:21.063Z,56.00
2019-03-05T15:28:21.054Z,56.00
2019-03-05T15:29:21.049Z,64.00
2019-03-05T15:30:21.025Z,64.00
2019-03-05T15:31:21.046Z,72.00
2019-03-05T15:32:20.998Z,40.00
2019-03-05T15:33:20.985Z,88.00
2019-03-05T15:34:20.978Z,88.00
2019-03-05T15:35:20.994Z,108.00
2019-03-05T15:36:24.039Z,108.00
2019-03-05T15:37:20.942Z,112.00
2019-03-05T15:38:20.973Z,120.00
2019-03-05T15:39:20.968Z,108.00
2019-03-05T15:40:20.931Z,112.00
2019-03-05T15:41:20.938Z,116.00
2019-03-05T15:42:20.928Z,120.00
2019-03-05T15:43:20.876Z,20.00
2019-03-05T15:44:20.916Z,92.00
2019-03-05T15:45:20.856Z,136.00
2019-03-05T15:46:20.839Z,144.00
2019-03-05T15:47:20.845Z,140.00
2019-03-05T15:48:20.817Z,140.00
2019-03-05T15:49:20.816Z,144.00
2019-03-05T15:50:20.819Z,140.00
2019-03-05T15:51:20.826Z,140.00
2019-03-05T15:52:20.779Z,160.00
2019-03-05T15:53:20.797Z,172.00
2019-03-05T15:54:20.769Z,164.00
2019-03-05T15:55:20.768Z,156.00
2019-03-05T15:56:20.732Z,148.00
2019-03-05T15:57:26.067Z,140.00
2019-03-05T15:58:21.704Z,132.00
2019-03-05T15:59:20.715Z,120.00
2019-03-05T16:00:20.687Z,116.00
2019-03-05T16:01:22.579Z,108.00
2019-03-05T16:02:20.667Z,112.00
2019-03-05T16:03:20.652Z,100.00
2019-03-05T16:04:20.639Z,88.00
2019-03-05T16:05:20.975Z,84.00
2019-03-05T16:06:20.627Z,80.00
2019-03-05T16:07:20.609Z,76.00
2019-03-05T16:08:20.977Z,76.00
2019-03-05T16:09:20.582Z,76.00
2019-03-05T16:10:20.574Z,76.00
2019-03-05T16:11:20.561Z,76.00
2019-03-05T16:12:20.549Z,76.00
2019-03-05T16:13:20.747Z,68.00
2019-03-05T16:14:20.531Z,68.00
2019-03-05T16:15:20.550Z,60.00
2019-03-05T16:16:20.512Z,68.00
2019-03-05T16:17:20.520Z,60.00
2019-03-05T16:18:20.485Z,60.00
2019-03-05T16:19:20.474Z,60.00
2019-03-05T16:20:20.474Z,60.00
2019-03-05T16:21:20.468Z,56.00
2019-03-05T16:22:20.469Z,36.00
2019-03-05T16:23:20.433Z,60.00
2019-03-05T16:24:20.418Z,56.00
2019-03-05T16:25:22.201Z,56.00
2019-03-05T16:26:23.748Z,48.00
2019-03-05T16:27:20.398Z,52.00
2019-03-05T16:28:20.377Z,48.00
2019-03-05T16:29:20.963Z,48.00
2019-03-05T16:30:20.357Z,44.00
2019-03-05T16:31:21.827Z,48.00
2019-03-05T16:32:23.053Z,48.00
2019-03-05T16:33:23.708Z,44.00
2019-03-05T16:34:20.310Z,44.00
2019-03-05T16:35:20.300Z,40.00
2019-03-05T16:36:20.293Z,24.00
2019-03-05T16:38:10.727Z,0.00
2019-03-05T16:39:10.718Z,44.00
2019-03-05T16:40:10.702Z,40.00
2019-03-05T16:41:10.701Z,40.00
2019-03-05T16:42:10.681Z,32.00
2019-03-05T16:43:11.321Z,28.00
2019-03-05T16:44:10.666Z,28.00
2019-03-05T16:45:10.650Z,24.00
2019-03-05T16:46:10.653Z,28.00
2019-03-05T16:47:10.630Z,24.00
2019-03-05T16:48:10.616Z,24.00
2019-03-05T16:49:10.604Z,24.00
2019-03-05T16:50:10.594Z,20.00
2019-03-05T16:51:10.588Z,20.00
2019-03-05T16:52:10.577Z,16.00
2019-03-05T16:53:10.574Z,16.00
2019-03-05T16:54:10.549Z,16.00
2019-03-05T16:55:10.547Z,12.00
2019-03-05T16:56:10.530Z,16.00
2019-03-05T16:57:10.522Z,12.00
2019-03-05T16:58:10.531Z,12.00
2019-03-05T16:59:10.497Z,12.00
2019-03-05T17:00:10.495Z,12.00
2019-03-05T17:01:10.483Z,12.00
2019-03-05T17:02:10.468Z,8.00
2019-03-05T17:03:10.453Z,8.00
2019-03-05T17:04:10.449Z,8.00
2019-03-05T17:05:10.452Z,8.00
2019-03-05T17:06:10.426Z,4.00
2019-03-05T17:07:10.417Z,8.00
2019-03-05T17:08:10.399Z,4.00
2019-03-05T17:09:10.391Z,4.00
2019-03-05T17:10:10.379Z,4.00
2019-03-05T17:11:10.368Z,0.00
2019-03-05T17:12:10.366Z,0.00
2019-03-05T17:13:10.346Z,4.00
2019-03-05T17:14:10.340Z,4.00
2019-03-05T17:15:10.330Z,4.00
2019-03-05T17:16:10.313Z,0.00
2019-03-05T17:17:10.312Z,0.00
2019-03-05T17:18:10.292Z,0.00
2019-03-05T17:19:10.281Z,0.00
2019-03-05T17:20:10.291Z,0.00
2019-03-05T17:21:10.265Z,0.00
2019-03-05T17:22:10.273Z,0.00
2019-03-05T17:23:10.242Z,0.00
2019-03-05T17:24:10.227Z,0.00
2019-03-05T17:25:10.231Z,0.00
2019-03-05T17:26:10.211Z,0.00
2019-03-05T17:27:10.217Z,0.00
2019-03-05T17:28:10.183Z,0.00
2019-03-05T17:29:10.172Z,0.00
2019-03-05T17:30:10.160Z,0.00
2019-03-05T17:31:10.157Z,0.00
2019-03-05T17:32:10.143Z,8.00
2019-03-05T17:33:10.155Z,0.00
2019-03-05T17:34:10.118Z,0.00
2019-03-05T17:35:10.111Z,0.00
2019-03-05T17:36:10.097Z,0.00
2019-03-05T17:37:10.089Z,0.00
2019-03-05T17:38:10.118Z,0.00
2019-03-05T17:39:10.083Z,0.00
2019-03-05T17:40:10.055Z,0.00
2019-03-05T17:41:10.079Z,0.00
2019-03-05T17:42:10.045Z,0.00
2019-03-05T17:43:10.030Z,0.00
2019-03-05T17:44:10.017Z,0.00
2019-03-05T17:45:10.021Z,0.00
2019-03-05T17:46:09.998Z,0.00
2019-03-05T17:47:10.009Z,0.00
2019-03-05T17:48:09.979Z,0.00
2019-03-05T17:49:09.970Z,0.00
2019-03-05T17:50:09.954Z,0.00
2019-03-05T17:51:09.944Z,0.00
2019-03-05T17:52:09.929Z,0.00
2019-03-05T17:53:09.941Z,0.00
2019-03-05T17:54:09.921Z,0.00
2019-03-05T17:55:09.892Z,0.00
2019-03-05T17:56:09.887Z,0.00
2019-03-05T17:57:09.893Z,0.00
2019-03-05T17:58:09.879Z,0.00
2019-03-05T17:59:09.852Z,0.00
2019-03-05T18:00:09.844Z,0.00
2019-03-05T18:01:09.833Z,0.00
2019-03-05T18:02:09.825Z,0.00
2019-03-05T18:03:09.808Z,0.00
2019-03-05T18:04:09.812Z,0.00
2019-03-05T18:05:09.797Z,0.00
2019-03-05T18:06:09.778Z,0.00
2019-03-05T18:07:09.772Z,0.00
2019-03-05T18:08:09.775Z,0.00
2019-03-05T18:09:09.746Z,0.00
2019-03-05T18:10:09.735Z,0.00
2019-03-05T18:11:09.724Z,0.00
2019-03-05T18:12:09.717Z,0.00
2019-03-05T18:13:09.701Z,0.00
2019-03-05T18:14:09.691Z,0.00
2019-03-05T18:15:09.678Z,0.00
2019-03-05T18:16:09.665Z,0.00
2019-03-05T18:17:09.677Z,0.00
2019-03-05T18:18:09.652Z,0.00
2019-03-05T18:19:09.661Z,0.00
2019-03-05T18:20:09.645Z,0.00
2019-03-05T18:21:09.624Z,0.00
2019-03-05T18:22:09.598Z,0.00
2019-03-05T18:23:09.608Z,0.00
2019-03-05T18:24:09.611Z,0.00
2019-03-05T18:25:09.667Z,0.00
2019-03-05T18:26:09.585Z,0.00
2019-03-05T18:27:09.568Z,0.00
2019-03-05T18:28:09.535Z,0.00
2019-03-05T18:29:09.522Z,0.00
2019-03-05T18:30:09.514Z,0.00
2019-03-05T18:31:09.506Z,16.00
2019-03-05T18:32:09.490Z,16.00
2019-03-05T18:33:09.491Z,0.00
2019-03-05T18:34:09.476Z,0.00
2019-03-05T18:35:09.483Z,0.00
2019-03-05T18:36:09.452Z,0.00
2019-03-05T18:37:09.446Z,0.00
2019-03-05T18:38:09.435Z,0.00
2019-03-05T18:39:09.429Z,0.00
2019-03-05T18:40:09.408Z,0.00
2019-03-05T18:41:09.419Z,0.00
2019-03-05T18:42:09.379Z,0.00
2019-03-05T18:43:09.382Z,0.00
2019-03-05T18:44:09.394Z,0.00
2019-03-05T18:45:09.353Z,0.00
2019-03-05T18:46:09.342Z,0.00
2019-03-05T18:47:09.381Z,0.00
2019-03-05T18:48:09.316Z,0.00
2019-03-05T18:49:09.314Z,0.00
2019-03-05T18:50:09.331Z,0.00
2019-03-05T18:51:09.290Z,0.00
2019-03-05T18:52:09.285Z,0.00
2019-03-05T18:53:09.265Z,0.00
2019-03-05T18:54:09.264Z,0.00
2019-03-05T18:55:09.257Z,12.00
